Terminal Aerodrome Forecast
Issued by NWS

Home | Current Version | Previous Version | Text Only | Print | Product List | Glossary On
Versions: 1 2 3 4 5 6 7 8 9 10 11 12 13 14 15 16
000
FTUS41 KALY 282321
TAFPSF
TAF
KPSF 282321Z 0100/0124 29005KT P6SM FEW200
     FM010300 VRB03KT P6SM SKC
     FM011000 00000KT P6SM BKN150
     FM011600 19004KT P6SM VCSH OVC080
     FM011900 20006KT 4SM -SN BR BKN025 OVC040
     FM012200 19005KT 2SM -SN BR BKN015 OVC025=

USA.gov is the U.S. government's official web portal to all federal, state and local government web resources and services.